sensor_id;sensor_type;location;lat;lon;timestamp;P1;durP1;ratioP1;P2;durP2;ratioP2
22138;SDS011;25815;52.582;13.408;2024-03-08T00:00:10;24.43;;;12.77;;
22138;SDS011;25815;52.582;13.408;2024-03-08T00:02:39;26.77;;;11.80;;
22138;SDS011;25815;52.582;13.408;2024-03-08T00:05:05;23.35;;;11.63;;
22138;SDS011;25815;52.582;13.408;2024-03-08T00:07:33;27.92;;;12.27;;
22138;SDS011;25815;52.582;13.408;2024-03-08T00:09:59;24.05;;;12.07;;
22138;SDS011;25815;52.582;13.408;2024-03-08T00:12:25;23.33;;;12.02;;
22138;SDS011;25815;52.582;13.408;2024-03-08T00:14:52;26.48;;;12.48;;
22138;SDS011;25815;52.582;13.408;2024-03-08T00:17:18;28.58;;;12.60;;
22138;SDS011;25815;52.582;13.408;2024-03-08T00:19:43;30.58;;;12.10;;
22138;SDS011;25815;52.582;13.408;2024-03-08T00:22:09;30.27;;;12.70;;
22138;SDS011;25815;52.582;13.408;2024-03-08T00:24:36;31.98;;;13.07;;
22138;SDS011;25815;52.582;13.408;2024-03-08T00:27:02;27.95;;;13.07;;
22138;SDS011;25815;52.582;13.408;2024-03-08T00:29:29;27.38;;;13.25;;
22138;SDS011;25815;52.582;13.408;2024-03-08T00:31:55;29.63;;;13.20;;
22138;SDS011;25815;52.582;13.408;2024-03-08T00:34:20;29.67;;;13.55;;
22138;SDS011;25815;52.582;13.408;2024-03-08T00:36:46;29.58;;;14.38;;
22138;SDS011;25815;52.582;13.408;2024-03-08T00:39:12;31.00;;;13.25;;
22138;SDS011;25815;52.582;13.408;2024-03-08T00:41:38;29.20;;;13.63;;
22138;SDS011;25815;52.582;13.408;2024-03-08T00:44:03;30.00;;;13.57;;
22138;SDS011;25815;52.582;13.408;2024-03-08T00:46:29;31.40;;;13.90;;
22138;SDS011;25815;52.582;13.408;2024-03-08T00:48:56;31.98;;;14.50;;
22138;SDS011;25815;52.582;13.408;2024-03-08T00:51:22;31.77;;;14.45;;
22138;SDS011;25815;52.582;13.408;2024-03-08T00:53:47;29.25;;;12.95;;
22138;SDS011;25815;52.582;13.408;2024-03-08T00:56:13;28.60;;;13.73;;
22138;SDS011;25815;52.582;13.408;2024-03-08T00:58:38;31.65;;;14.55;;
22138;SDS011;25815;52.582;13.408;2024-03-08T01:01:05;34.42;;;14.50;;
22138;SDS011;25815;52.582;13.408;2024-03-08T01:03:30;31.58;;;14.27;;
22138;SDS011;25815;52.582;13.408;2024-03-08T01:05:56;33.33;;;14.00;;
22138;SDS011;25815;52.582;13.408;2024-03-08T01:08:24;32.22;;;14.48;;
22138;SDS011;25815;52.582;13.408;2024-03-08T01:10:50;29.52;;;13.93;;
22138;SDS011;25815;52.582;13.408;2024-03-08T01:13:15;29.27;;;13.55;;
22138;SDS011;25815;52.582;13.408;2024-03-08T01:15:41;26.33;;;13.50;;
22138;SDS011;25815;52.582;13.408;2024-03-08T01:18:06;32.33;;;14.73;;
22138;SDS011;25815;52.582;13.408;2024-03-08T01:20:32;31.38;;;14.25;;
22138;SDS011;25815;52.582;13.408;2024-03-08T01:22:57;29.08;;;13.32;;
22138;SDS011;25815;52.582;13.408;2024-03-08T01:25:23;29.20;;;13.70;;
22138;SDS011;25815;52.582;13.408;2024-03-08T01:27:48;27.77;;;14.05;;
22138;SDS011;25815;52.582;13.408;2024-03-08T01:30:14;30.92;;;14.13;;
22138;SDS011;25815;52.582;13.408;2024-03-08T01:32:42;31.17;;;14.00;;
22138;SDS011;25815;52.582;13.408;2024-03-08T01:35:08;33.13;;;14.77;;
22138;SDS011;25815;52.582;13.408;2024-03-08T01:37:35;31.35;;;13.45;;
22138;SDS011;25815;52.582;13.408;2024-03-08T01:40:01;31.75;;;14.25;;
22138;SDS011;25815;52.582;13.408;2024-03-08T01:42:28;29.63;;;13.63;;
22138;SDS011;25815;52.582;13.408;2024-03-08T01:44:53;32.13;;;14.85;;
22138;SDS011;25815;52.582;13.408;2024-03-08T01:47:19;30.40;;;13.55;;
22138;SDS011;25815;52.582;13.408;2024-03-08T01:49:48;24.70;;;12.80;;
22138;SDS011;25815;52.582;13.408;2024-03-08T01:52:17;27.67;;;12.80;;
22138;SDS011;25815;52.582;13.408;2024-03-08T01:54:47;30.42;;;13.82;;
22138;SDS011;25815;52.582;13.408;2024-03-08T01:57:13;27.13;;;12.65;;
22138;SDS011;25815;52.582;13.408;2024-03-08T01:59:40;34.42;;;13.95;;
22138;SDS011;25815;52.582;13.408;2024-03-08T02:02:06;29.05;;;13.52;;
22138;SDS011;25815;52.582;13.408;2024-03-08T02:04:33;29.95;;;12.93;;
22138;SDS011;25815;52.582;13.408;2024-03-08T02:06:59;31.65;;;14.10;;
22138;SDS011;25815;52.582;13.408;2024-03-08T02:09:25;28.13;;;13.43;;
22138;SDS011;25815;52.582;13.408;2024-03-08T02:11:51;28.60;;;13.55;;
22138;SDS011;25815;52.582;13.408;2024-03-08T02:14:17;28.42;;;13.20;;
22138;SDS011;25815;52.582;13.408;2024-03-08T02:16:43;28.75;;;13.77;;
22138;SDS011;25815;52.582;13.408;2024-03-08T02:19:09;27.33;;;13.98;;
22138;SDS011;25815;52.582;13.408;2024-03-08T02:21:35;26.70;;;13.50;;
22138;SDS011;25815;52.582;13.408;2024-03-08T02:24:01;27.45;;;14.02;;
22138;SDS011;25815;52.582;13.408;2024-03-08T02:26:27;33.97;;;14.07;;
22138;SDS011;25815;52.582;13.408;2024-03-08T02:28:52;30.60;;;13.80;;
22138;SDS011;25815;52.582;13.408;2024-03-08T02:31:18;29.58;;;13.45;;
22138;SDS011;25815;52.582;13.408;2024-03-08T02:33:43;29.48;;;14.02;;
22138;SDS011;25815;52.582;13.408;2024-03-08T02:36:09;29.13;;;14.15;;
22138;SDS011;25815;52.582;13.408;2024-03-08T02:38:35;32.03;;;13.98;;
22138;SDS011;25815;52.582;13.408;2024-03-08T02:41:00;31.42;;;14.05;;
22138;SDS011;25815;52.582;13.408;2024-03-08T02:43:26;28.42;;;13.40;;
22138;SDS011;25815;52.582;13.408;2024-03-08T02:45:51;30.90;;;13.68;;
22138;SDS011;25815;52.582;13.408;2024-03-08T02:48:20;27.67;;;13.98;;
22138;SDS011;25815;52.582;13.408;2024-03-08T02:50:46;30.80;;;13.82;;
22138;SDS011;25815;52.582;13.408;2024-03-08T02:53:12;29.73;;;12.65;;
22138;SDS011;25815;52.582;13.408;2024-03-08T02:55:41;28.38;;;13.35;;
22138;SDS011;25815;52.582;13.408;2024-03-08T02:58:07;27.58;;;13.35;;
22138;SDS011;25815;52.582;13.408;2024-03-08T03:00:36;20.85;;;10.90;;
22138;SDS011;25815;52.582;13.408;2024-03-08T03:03:03;28.25;;;13.88;;
22138;SDS011;25815;52.582;13.408;2024-03-08T03:05:29;27.42;;;12.70;;
22138;SDS011;25815;52.582;13.408;2024-03-08T03:07:55;29.83;;;14.05;;
22138;SDS011;25815;52.582;13.408;2024-03-08T03:10:21;27.08;;;13.02;;
22138;SDS011;25815;52.582;13.408;2024-03-08T03:12:47;30.65;;;13.35;;
22138;SDS011;25815;52.582;13.408;2024-03-08T03:15:16;31.85;;;13.50;;
22138;SDS011;25815;52.582;13.408;2024-03-08T03:17:49;29.98;;;12.85;;
22138;SDS011;25815;52.582;13.408;2024-03-08T03:20:18;29.38;;;14.23;;
22138;SDS011;25815;52.582;13.408;2024-03-08T03:22:57;27.58;;;13.57;;
22138;SDS011;25815;52.582;13.408;2024-03-08T03:25:27;29.92;;;13.35;;
22138;SDS011;25815;52.582;13.408;2024-03-08T03:28:00;27.65;;;13.20;;
22138;SDS011;25815;52.582;13.408;2024-03-08T03:30:29;32.10;;;14.38;;
22138;SDS011;25815;52.582;13.408;2024-03-08T03:32:57;33.58;;;13.98;;
22138;SDS011;25815;52.582;13.408;2024-03-08T03:35:27;29.40;;;13.43;;
22138;SDS011;25815;52.582;13.408;2024-03-08T03:37:54;32.55;;;14.25;;
22138;SDS011;25815;52.582;13.408;2024-03-08T03:40:32;29.45;;;13.82;;
22138;SDS011;25815;52.582;13.408;2024-03-08T03:42:58;30.33;;;13.63;;
22138;SDS011;25815;52.582;13.408;2024-03-08T03:45:24;30.95;;;14.52;;
22138;SDS011;25815;52.582;13.408;2024-03-08T03:47:49;31.15;;;13.50;;
22138;SDS011;25815;52.582;13.408;2024-03-08T03:50:16;29.67;;;13.70;;
22138;SDS011;25815;52.582;13.408;2024-03-08T03:52:46;32.42;;;13.98;;
22138;SDS011;25815;52.582;13.408;2024-03-08T03:55:12;33.95;;;14.73;;
22138;SDS011;25815;52.582;13.408;2024-03-08T03:57:38;31.48;;;13.27;;
22138;SDS011;25815;52.582;13.408;2024-03-08T04:00:04;31.10;;;13.85;;
22138;SDS011;25815;52.582;13.408;2024-03-08T04:02:31;29.30;;;14.10;;
22138;SDS011;25815;52.582;13.408;2024-03-08T04:04:56;32.25;;;14.02;;
22138;SDS011;25815;52.582;13.408;2024-03-08T04:07:22;29.73;;;13.25;;
22138;SDS011;25815;52.582;13.408;2024-03-08T04:09:47;30.55;;;13.15;;
22138;SDS011;25815;52.582;13.408;2024-03-08T04:12:13;32.78;;;14.07;;
22138;SDS011;25815;52.582;13.408;2024-03-08T04:14:41;29.40;;;13.10;;
22138;SDS011;25815;52.582;13.408;2024-03-08T04:17:07;31.95;;;14.75;;
22138;SDS011;25815;52.582;13.408;2024-03-08T04:19:34;31.70;;;14.25;;
22138;SDS011;25815;52.582;13.408;2024-03-08T04:22:00;31.00;;;13.65;;
22138;SDS011;25815;52.582;13.408;2024-03-08T04:24:26;27.17;;;13.57;;
22138;SDS011;25815;52.582;13.408;2024-03-08T04:26:51;33.90;;;13.98;;
22138;SDS011;25815;52.582;13.408;2024-03-08T04:29:18;27.23;;;13.70;;
22138;SDS011;25815;52.582;13.408;2024-03-08T04:31:43;32.35;;;13.77;;
22138;SDS011;25815;52.582;13.408;2024-03-08T04:34:09;33.58;;;14.05;;
22138;SDS011;25815;52.582;13.408;2024-03-08T04:36:35;26.58;;;13.25;;
22138;SDS011;25815;52.582;13.408;2024-03-08T04:39:00;29.20;;;13.07;;
22138;SDS011;25815;52.582;13.408;2024-03-08T04:41:26;30.67;;;14.02;;
22138;SDS011;25815;52.582;13.408;2024-03-08T04:43:51;27.67;;;13.50;;
22138;SDS011;25815;52.582;13.408;2024-03-08T04:46:17;32.17;;;14.30;;
22138;SDS011;25815;52.582;13.408;2024-03-08T04:48:43;31.52;;;13.85;;
22138;SDS011;25815;52.582;13.408;2024-03-08T04:51:08;29.33;;;12.73;;
22138;SDS011;25815;52.582;13.408;2024-03-08T04:53:34;35.22;;;14.15;;
22138;SDS011;25815;52.582;13.408;2024-03-08T04:56:00;32.80;;;14.43;;
22138;SDS011;25815;52.582;13.408;2024-03-08T04:58:30;33.65;;;14.27;;
22138;SDS011;25815;52.582;13.408;2024-03-08T05:00:57;32.90;;;14.68;;
22138;SDS011;25815;52.582;13.408;2024-03-08T05:03:23;29.52;;;13.23;;
22138;SDS011;25815;52.582;13.408;2024-03-08T05:05:51;33.20;;;13.70;;
22138;SDS011;25815;52.582;13.408;2024-03-08T05:08:17;32.13;;;13.73;;
22138;SDS011;25815;52.582;13.408;2024-03-08T05:10:43;31.08;;;13.10;;
22138;SDS011;25815;52.582;13.408;2024-03-08T05:13:09;30.27;;;13.48;;
22138;SDS011;25815;52.582;13.408;2024-03-08T05:15:35;31.00;;;14.20;;
22138;SDS011;25815;52.582;13.408;2024-03-08T05:18:01;32.67;;;14.45;;
22138;SDS011;25815;52.582;13.408;2024-03-08T05:20:27;33.70;;;14.50;;
22138;SDS011;25815;52.582;13.408;2024-03-08T05:22:52;27.90;;;13.80;;
22138;SDS011;25815;52.582;13.408;2024-03-08T05:25:18;32.03;;;14.38;;
22138;SDS011;25815;52.582;13.408;2024-03-08T05:27:43;31.67;;;13.95;;
22138;SDS011;25815;52.582;13.408;2024-03-08T05:30:09;34.05;;;14.60;;
22138;SDS011;25815;52.582;13.408;2024-03-08T05:32:40;36.38;;;15.70;;
22138;SDS011;25815;52.582;13.408;2024-03-08T05:37:40;32.92;;;14.88;;
22138;SDS011;25815;52.582;13.408;2024-03-08T05:40:06;38.78;;;16.75;;
22138;SDS011;25815;52.582;13.408;2024-03-08T05:42:34;35.50;;;15.73;;
22138;SDS011;25815;52.582;13.408;2024-03-08T05:45:01;34.35;;;15.13;;
22138;SDS011;25815;52.582;13.408;2024-03-08T05:47:27;31.95;;;15.30;;
22138;SDS011;25815;52.582;13.408;2024-03-08T05:49:53;34.78;;;15.98;;
22138;SDS011;25815;52.582;13.408;2024-03-08T05:52:18;35.38;;;15.05;;
22138;SDS011;25815;52.582;13.408;2024-03-08T05:54:44;34.50;;;15.32;;
22138;SDS011;25815;52.582;13.408;2024-03-08T05:57:10;34.78;;;14.75;;
22138;SDS011;25815;52.582;13.408;2024-03-08T05:59:36;32.85;;;15.65;;
22138;SDS011;25815;52.582;13.408;2024-03-08T06:02:02;32.60;;;14.73;;
22138;SDS011;25815;52.582;13.408;2024-03-08T06:04:28;34.70;;;14.60;;
22138;SDS011;25815;52.582;13.408;2024-03-08T06:06:54;38.28;;;15.52;;
22138;SDS011;25815;52.582;13.408;2024-03-08T06:09:22;36.00;;;15.82;;
22138;SDS011;25815;52.582;13.408;2024-03-08T06:11:48;38.50;;;16.38;;
22138;SDS011;25815;52.582;13.408;2024-03-08T06:14:14;34.72;;;15.45;;
22138;SDS011;25815;52.582;13.408;2024-03-08T06:16:43;34.22;;;15.93;;
22138;SDS011;25815;52.582;13.408;2024-03-08T06:19:12;39.90;;;16.00;;
22138;SDS011;25815;52.582;13.408;2024-03-08T06:21:38;36.45;;;15.95;;
22138;SDS011;25815;52.582;13.408;2024-03-08T06:24:04;37.30;;;15.23;;
22138;SDS011;25815;52.582;13.408;2024-03-08T06:26:30;35.15;;;15.88;;
22138;SDS011;25815;52.582;13.408;2024-03-08T06:28:55;41.78;;;16.33;;
22138;SDS011;25815;52.582;13.408;2024-03-08T06:31:22;35.72;;;16.30;;
22138;SDS011;25815;52.582;13.408;2024-03-08T06:33:48;32.95;;;15.10;;
22138;SDS011;25815;52.582;13.408;2024-03-08T06:36:19;32.05;;;16.08;;
22138;SDS011;25815;52.582;13.408;2024-03-08T06:38:46;35.67;;;15.63;;
22138;SDS011;25815;52.582;13.408;2024-03-08T06:41:12;35.85;;;16.73;;
22138;SDS011;25815;52.582;13.408;2024-03-08T06:43:44;36.90;;;16.30;;
22138;SDS011;25815;52.582;13.408;2024-03-08T06:48:39;40.55;;;16.23;;
22138;SDS011;25815;52.582;13.408;2024-03-08T06:51:05;35.70;;;15.95;;
22138;SDS011;25815;52.582;13.408;2024-03-08T06:53:31;37.10;;;16.13;;
22138;SDS011;25815;52.582;13.408;2024-03-08T06:55:57;34.67;;;15.93;;
22138;SDS011;25815;52.582;13.408;2024-03-08T06:58:26;39.60;;;16.73;;
22138;SDS011;25815;52.582;13.408;2024-03-08T07:00:52;34.42;;;15.52;;
22138;SDS011;25815;52.582;13.408;2024-03-08T07:03:18;34.13;;;15.77;;
22138;SDS011;25815;52.582;13.408;2024-03-08T07:05:44;34.83;;;15.75;;
22138;SDS011;25815;52.582;13.408;2024-03-08T07:08:09;38.22;;;16.45;;
22138;SDS011;25815;52.582;13.408;2024-03-08T07:10:35;36.42;;;15.27;;
22138;SDS011;25815;52.582;13.408;2024-03-08T07:13:02;36.42;;;17.00;;
22138;SDS011;25815;52.582;13.408;2024-03-08T07:15:28;36.88;;;15.88;;
22138;SDS011;25815;52.582;13.408;2024-03-08T07:17:54;38.47;;;17.27;;
22138;SDS011;25815;52.582;13.408;2024-03-08T07:20:20;37.33;;;16.83;;
22138;SDS011;25815;52.582;13.408;2024-03-08T07:22:46;36.33;;;17.13;;
22138;SDS011;25815;52.582;13.408;2024-03-08T07:25:17;38.88;;;16.33;;
22138;SDS011;25815;52.582;13.408;2024-03-08T07:27:47;39.80;;;16.57;;
22138;SDS011;25815;52.582;13.408;2024-03-08T07:30:13;38.60;;;16.58;;
22138;SDS011;25815;52.582;13.408;2024-03-08T07:32:59;39.72;;;16.20;;
22138;SDS011;25815;52.582;13.408;2024-03-08T07:35:24;35.40;;;17.02;;
22138;SDS011;25815;52.582;13.408;2024-03-08T07:37:51;37.13;;;17.13;;
22138;SDS011;25815;52.582;13.408;2024-03-08T07:40:18;39.58;;;17.60;;
22138;SDS011;25815;52.582;13.408;2024-03-08T07:42:43;34.00;;;15.40;;
22138;SDS011;25815;52.582;13.408;2024-03-08T07:45:09;40.33;;;15.88;;
22138;SDS011;25815;52.582;13.408;2024-03-08T07:47:34;36.05;;;16.33;;
22138;SDS011;25815;52.582;13.408;2024-03-08T07:50:01;40.92;;;16.88;;
22138;SDS011;25815;52.582;13.408;2024-03-08T07:52:27;40.80;;;17.20;;
22138;SDS011;25815;52.582;13.408;2024-03-08T07:54:52;39.10;;;17.02;;
22138;SDS011;25815;52.582;13.408;2024-03-08T07:57:19;35.90;;;16.08;;
22138;SDS011;25815;52.582;13.408;2024-03-08T07:59:45;35.40;;;15.80;;
22138;SDS011;25815;52.582;13.408;2024-03-08T08:02:10;35.38;;;16.75;;
22138;SDS011;25815;52.582;13.408;2024-03-08T08:04:36;42.95;;;17.52;;
22138;SDS011;25815;52.582;13.408;2024-03-08T08:07:03;36.30;;;15.57;;
22138;SDS011;25815;52.582;13.408;2024-03-08T08:09:29;36.13;;;16.15;;
22138;SDS011;25815;52.582;13.408;2024-03-08T08:11:59;36.20;;;16.27;;
22138;SDS011;25815;52.582;13.408;2024-03-08T08:14:26;32.70;;;15.75;;
22138;SDS011;25815;52.582;13.408;2024-03-08T08:16:52;32.70;;;15.55;;
22138;SDS011;25815;52.582;13.408;2024-03-08T08:19:18;33.00;;;15.43;;
22138;SDS011;25815;52.582;13.408;2024-03-08T08:21:44;33.95;;;15.05;;
22138;SDS011;25815;52.582;13.408;2024-03-08T08:24:09;31.40;;;15.00;;
22138;SDS011;25815;52.582;13.408;2024-03-08T08:26:35;35.38;;;14.60;;
22138;SDS011;25815;52.582;13.408;2024-03-08T08:29:01;33.38;;;15.25;;
22138;SDS011;25815;52.582;13.408;2024-03-08T08:31:27;34.30;;;15.15;;
22138;SDS011;25815;52.582;13.408;2024-03-08T08:33:52;35.25;;;15.45;;
22138;SDS011;25815;52.582;13.408;2024-03-08T08:36:24;33.25;;;14.25;;
22138;SDS011;25815;52.582;13.408;2024-03-08T08:38:50;34.95;;;14.90;;
22138;SDS011;25815;52.582;13.408;2024-03-08T08:41:19;32.65;;;14.18;;
22138;SDS011;25815;52.582;13.408;2024-03-08T08:43:44;33.92;;;14.18;;
22138;SDS011;25815;52.582;13.408;2024-03-08T08:46:10;34.47;;;14.25;;
22138;SDS011;25815;52.582;13.408;2024-03-08T08:48:39;31.35;;;13.77;;
22138;SDS011;25815;52.582;13.408;2024-03-08T08:51:13;35.53;;;15.07;;
22138;SDS011;25815;52.582;13.408;2024-03-08T08:53:40;33.60;;;14.10;;
22138;SDS011;25815;52.582;13.408;2024-03-08T08:56:07;32.25;;;14.35;;
22138;SDS011;25815;52.582;13.408;2024-03-08T08:58:33;32.50;;;13.70;;
22138;SDS011;25815;52.582;13.408;2024-03-08T09:00:59;29.55;;;12.95;;
22138;SDS011;25815;52.582;13.408;2024-03-08T09:03:25;27.70;;;12.68;;
22138;SDS011;25815;52.582;13.408;2024-03-08T09:05:52;30.23;;;13.02;;
22138;SDS011;25815;52.582;13.408;2024-03-08T09:08:17;29.13;;;12.85;;
22138;SDS011;25815;52.582;13.408;2024-03-08T09:10:43;27.88;;;12.48;;
22138;SDS011;25815;52.582;13.408;2024-03-08T09:13:08;26.60;;;13.13;;
22138;SDS011;25815;52.582;13.408;2024-03-08T09:15:36;26.58;;;13.02;;
22138;SDS011;25815;52.582;13.408;2024-03-08T09:18:05;25.80;;;12.23;;
22138;SDS011;25815;52.582;13.408;2024-03-08T09:20:31;30.92;;;13.05;;
22138;SDS011;25815;52.582;13.408;2024-03-08T09:22:57;26.38;;;12.23;;
22138;SDS011;25815;52.582;13.408;2024-03-08T09:25:22;29.65;;;13.65;;
22138;SDS011;25815;52.582;13.408;2024-03-08T09:27:48;30.52;;;13.70;;
22138;SDS011;25815;52.582;13.408;2024-03-08T09:30:14;29.88;;;13.45;;
22138;SDS011;25815;52.582;13.408;2024-03-08T09:32:40;29.90;;;12.93;;
22138;SDS011;25815;52.582;13.408;2024-03-08T09:35:06;25.63;;;12.90;;
22138;SDS011;25815;52.582;13.408;2024-03-08T09:37:32;29.45;;;13.52;;
22138;SDS011;25815;52.582;13.408;2024-03-08T09:40:01;28.92;;;12.82;;
22138;SDS011;25815;52.582;13.408;2024-03-08T09:42:34;27.35;;;12.95;;
22138;SDS011;25815;52.582;13.408;2024-03-08T09:45:02;30.85;;;13.32;;
22138;SDS011;25815;52.582;13.408;2024-03-08T09:47:35;30.08;;;13.50;;
22138;SDS011;25815;52.582;13.408;2024-03-08T09:50:05;27.98;;;12.98;;
22138;SDS011;25815;52.582;13.408;2024-03-08T09:52:34;29.60;;;13.15;;
22138;SDS011;25815;52.582;13.408;2024-03-08T09:55:00;27.63;;;12.30;;
22138;SDS011;25815;52.582;13.408;2024-03-08T09:57:26;31.48;;;13.02;;
22138;SDS011;25815;52.582;13.408;2024-03-08T09:59:52;29.67;;;12.75;;
22138;SDS011;25815;52.582;13.408;2024-03-08T10:02:20;29.92;;;13.93;;
22138;SDS011;25815;52.582;13.408;2024-03-08T10:04:46;28.67;;;12.82;;
22138;SDS011;25815;52.582;13.408;2024-03-08T10:07:12;27.02;;;12.38;;
22138;SDS011;25815;52.582;13.408;2024-03-08T10:09:38;22.83;;;10.98;;
22138;SDS011;25815;52.582;13.408;2024-03-08T10:12:04;24.33;;;11.60;;
22138;SDS011;25815;52.582;13.408;2024-03-08T10:14:30;29.92;;;12.15;;
22138;SDS011;25815;52.582;13.408;2024-03-08T10:16:56;29.42;;;12.27;;
22138;SDS011;25815;52.582;13.408;2024-03-08T10:19:26;23.50;;;12.07;;
22138;SDS011;25815;52.582;13.408;2024-03-08T10:21:54;25.23;;;12.13;;
22138;SDS011;25815;52.582;13.408;2024-03-08T10:24:22;26.83;;;11.80;;
22138;SDS011;25815;52.582;13.408;2024-03-08T10:26:51;23.33;;;11.27;;
22138;SDS011;25815;52.582;13.408;2024-03-08T10:29:30;21.65;;;11.43;;
22138;SDS011;25815;52.582;13.408;2024-03-08T10:31:56;23.15;;;11.27;;
22138;SDS011;25815;52.582;13.408;2024-03-08T10:34:22;24.42;;;11.43;;
22138;SDS011;25815;52.582;13.408;2024-03-08T10:36:49;22.85;;;10.90;;
22138;SDS011;25815;52.582;13.408;2024-03-08T10:39:21;22.40;;;10.82;;
22138;SDS011;25815;52.582;13.408;2024-03-08T10:41:51;22.92;;;11.40;;
22138;SDS011;25815;52.582;13.408;2024-03-08T10:46:57;22.95;;;11.02;;
22138;SDS011;25815;52.582;13.408;2024-03-08T10:52:28;21.98;;;11.02;;
22138;SDS011;25815;52.582;13.408;2024-03-08T10:54:54;19.42;;;10.88;;
22138;SDS011;25815;52.582;13.408;2024-03-08T10:57:21;24.13;;;11.13;;
22138;SDS011;25815;52.582;13.408;2024-03-08T10:59:48;21.75;;;10.77;;
22138;SDS011;25815;52.582;13.408;2024-03-08T11:02:16;18.90;;;10.23;;
22138;SDS011;25815;52.582;13.408;2024-03-08T11:04:50;22.13;;;11.48;;
22138;SDS011;25815;52.582;13.408;2024-03-08T11:07:16;21.55;;;10.80;;
22138;SDS011;25815;52.582;13.408;2024-03-08T11:09:43;20.20;;;10.00;;
22138;SDS011;25815;52.582;13.408;2024-03-08T11:12:29;19.30;;;10.15;;
22138;SDS011;25815;52.582;13.408;2024-03-08T11:15:01;17.75;;;9.38;;
22138;SDS011;25815;52.582;13.408;2024-03-08T11:19:59;15.43;;;8.75;;
22138;SDS011;25815;52.582;13.408;2024-03-08T11:22:32;18.63;;;9.05;;
22138;SDS011;25815;52.582;13.408;2024-03-08T11:24:58;22.38;;;10.13;;
22138;SDS011;25815;52.582;13.408;2024-03-08T11:27:31;22.27;;;10.75;;
22138;SDS011;25815;52.582;13.408;2024-03-08T11:30:07;19.75;;;10.05;;
22138;SDS011;25815;52.582;13.408;2024-03-08T11:32:37;21.15;;;10.20;;
22138;SDS011;25815;52.582;13.408;2024-03-08T11:35:07;18.17;;;9.40;;
22138;SDS011;25815;52.582;13.408;2024-03-08T11:37:43;18.08;;;9.20;;
22138;SDS011;25815;52.582;13.408;2024-03-08T11:40:12;24.17;;;9.60;;
22138;SDS011;25815;52.582;13.408;2024-03-08T11:42:47;20.38;;;9.15;;
22138;SDS011;25815;52.582;13.408;2024-03-08T11:45:14;19.10;;;9.85;;
22138;SDS011;25815;52.582;13.408;2024-03-08T11:47:46;21.65;;;10.45;;
22138;SDS011;25815;52.582;13.408;2024-03-08T11:50:12;18.67;;;10.88;;
22138;SDS011;25815;52.582;13.408;2024-03-08T11:52:38;24.83;;;12.52;;
22138;SDS011;25815;52.582;13.408;2024-03-08T11:55:04;19.95;;;10.85;;
22138;SDS011;25815;52.582;13.408;2024-03-08T11:57:31;21.85;;;11.30;;
22138;SDS011;25815;52.582;13.408;2024-03-08T11:59:57;21.80;;;10.02;;
22138;SDS011;25815;52.582;13.408;2024-03-08T12:02:30;22.80;;;10.70;;
22138;SDS011;25815;52.582;13.408;2024-03-08T12:04:57;20.70;;;11.13;;
22138;SDS011;25815;52.582;13.408;2024-03-08T12:07:24;20.00;;;10.82;;
22138;SDS011;25815;52.582;13.408;2024-03-08T12:12:46;18.90;;;10.02;;
22138;SDS011;25815;52.582;13.408;2024-03-08T12:15:17;20.02;;;9.88;;
22138;SDS011;25815;52.582;13.408;2024-03-08T12:17:44;21.38;;;10.57;;
22138;SDS011;25815;52.582;13.408;2024-03-08T12:22:47;22.77;;;11.07;;
22138;SDS011;25815;52.582;13.408;2024-03-08T12:25:13;22.48;;;10.57;;
22138;SDS011;25815;52.582;13.408;2024-03-08T12:27:39;23.15;;;10.32;;
22138;SDS011;25815;52.582;13.408;2024-03-08T12:30:18;19.65;;;10.73;;
22138;SDS011;25815;52.582;13.408;2024-03-08T12:32:50;19.13;;;10.25;;
22138;SDS011;25815;52.582;13.408;2024-03-08T12:35:19;17.73;;;9.43;;
22138;SDS011;25815;52.582;13.408;2024-03-08T12:37:49;19.70;;;9.57;;
22138;SDS011;25815;52.582;13.408;2024-03-08T12:40:18;20.80;;;8.63;;
22138;SDS011;25815;52.582;13.408;2024-03-08T12:42:50;21.05;;;10.25;;
22138;SDS011;25815;52.582;13.408;2024-03-08T12:45:16;18.50;;;9.25;;
22138;SDS011;25815;52.582;13.408;2024-03-08T12:47:41;20.90;;;8.93;;
22138;SDS011;25815;52.582;13.408;2024-03-08T12:50:07;20.52;;;9.65;;
22138;SDS011;25815;52.582;13.408;2024-03-08T12:52:34;21.50;;;10.50;;
22138;SDS011;25815;52.582;13.408;2024-03-08T12:55:00;18.60;;;10.35;;
22138;SDS011;25815;52.582;13.408;2024-03-08T12:57:28;18.80;;;10.13;;
22138;SDS011;25815;52.582;13.408;2024-03-08T12:59:54;18.50;;;9.32;;
22138;SDS011;25815;52.582;13.408;2024-03-08T13:02:20;18.90;;;10.35;;
22138;SDS011;25815;52.582;13.408;2024-03-08T13:04:46;19.90;;;10.25;;
22138;SDS011;25815;52.582;13.408;2024-03-08T13:07:20;19.52;;;9.80;;
22138;SDS011;25815;52.582;13.408;2024-03-08T13:09:46;20.00;;;10.40;;
22138;SDS011;25815;52.582;13.408;2024-03-08T13:12:11;20.70;;;11.15;;
22138;SDS011;25815;52.582;13.408;2024-03-08T13:14:37;19.60;;;10.70;;
22138;SDS011;25815;52.582;13.408;2024-03-08T13:17:05;18.35;;;10.68;;
22138;SDS011;25815;52.582;13.408;2024-03-08T13:19:35;20.08;;;10.45;;
22138;SDS011;25815;52.582;13.408;2024-03-08T13:22:01;20.60;;;11.35;;
22138;SDS011;25815;52.582;13.408;2024-03-08T13:24:29;21.90;;;11.68;;
22138;SDS011;25815;52.582;13.408;2024-03-08T13:26:55;19.55;;;11.25;;
22138;SDS011;25815;52.582;13.408;2024-03-08T13:29:20;23.25;;;10.68;;
22138;SDS011;25815;52.582;13.408;2024-03-08T13:31:46;19.95;;;10.65;;
22138;SDS011;25815;52.582;13.408;2024-03-08T13:34:16;20.52;;;10.95;;
22138;SDS011;25815;52.582;13.408;2024-03-08T13:36:42;22.73;;;11.32;;
22138;SDS011;25815;52.582;13.408;2024-03-08T13:39:09;21.08;;;11.23;;
22138;SDS011;25815;52.582;13.408;2024-03-08T13:41:41;23.13;;;10.23;;
22138;SDS011;25815;52.582;13.408;2024-03-08T13:44:07;23.88;;;11.82;;
22138;SDS011;25815;52.582;13.408;2024-03-08T13:46:32;18.55;;;10.65;;
22138;SDS011;25815;52.582;13.408;2024-03-08T13:49:03;20.25;;;10.82;;
22138;SDS011;25815;52.582;13.408;2024-03-08T13:51:31;19.80;;;10.93;;
22138;SDS011;25815;52.582;13.408;2024-03-08T13:53:57;20.13;;;12.35;;
22138;SDS011;25815;52.582;13.408;2024-03-08T13:56:23;22.80;;;11.65;;
22138;SDS011;25815;52.582;13.408;2024-03-08T13:58:48;20.45;;;11.80;;
22138;SDS011;25815;52.582;13.408;2024-03-08T14:01:14;22.75;;;11.68;;
22138;SDS011;25815;52.582;13.408;2024-03-08T14:03:39;21.58;;;11.13;;
22138;SDS011;25815;52.582;13.408;2024-03-08T14:06:08;21.13;;;12.18;;
22138;SDS011;25815;52.582;13.408;2024-03-08T14:08:34;21.13;;;11.18;;
22138;SDS011;25815;52.582;13.408;2024-03-08T14:11:03;20.15;;;11.38;;
22138;SDS011;25815;52.582;13.408;2024-03-08T14:13:36;20.65;;;10.90;;
22138;SDS011;25815;52.582;13.408;2024-03-08T14:16:12;18.40;;;10.55;;
22138;SDS011;25815;52.582;13.408;2024-03-08T14:18:38;23.42;;;11.35;;
22138;SDS011;25815;52.582;13.408;2024-03-08T14:21:04;22.75;;;11.70;;
22138;SDS011;25815;52.582;13.408;2024-03-08T14:23:30;19.77;;;10.57;;
22138;SDS011;25815;52.582;13.408;2024-03-08T14:25:56;21.95;;;11.50;;